sensor_id;sensor_type;location;lat;lon;timestamp;temperature;humidity
2957;DHT22;1488;51.548;7.222;2023-04-10T00:02:00;21.50;64.70
2957;DHT22;1488;51.548;7.222;2023-04-10T00:04:27;21.50;65.60
2957;DHT22;1488;51.548;7.222;2023-04-10T00:06:54;21.40;64.70
2957;DHT22;1488;51.548;7.222;2023-04-10T00:09:20;21.50;64.70
2957;DHT22;1488;51.548;7.222;2023-04-10T00:11:47;21.60;64.70
2957;DHT22;1488;51.548;7.222;2023-04-10T00:14:15;21.50;64.60
2957;DHT22;1488;51.548;7.222;2023-04-10T00:16:47;21.50;64.60
2957;DHT22;1488;51.548;7.222;2023-04-10T00:19:16;21.40;64.50
2957;DHT22;1488;51.548;7.222;2023-04-10T00:21:43;21.40;64.50
2957;DHT22;1488;51.548;7.222;2023-04-10T00:24:10;21.40;64.50
2957;DHT22;1488;51.548;7.222;2023-04-10T00:26:37;21.40;64.50
2957;DHT22;1488;51.548;7.222;2023-04-10T00:29:04;21.40;64.40
2957;DHT22;1488;51.548;7.222;2023-04-10T00:31:32;21.40;64.50
2957;DHT22;1488;51.548;7.222;2023-04-10T00:33:59;21.40;64.40
2957;DHT22;1488;51.548;7.222;2023-04-10T00:36:25;21.40;64.40
2957;DHT22;1488;51.548;7.222;2023-04-10T00:38:52;21.40;64.30
2957;DHT22;1488;51.548;7.222;2023-04-10T00:41:19;21.40;64.50
2957;DHT22;1488;51.548;7.222;2023-04-10T00:43:48;21.40;64.40
2957;DHT22;1488;51.548;7.222;2023-04-10T00:46:15;21.40;64.30
2957;DHT22;1488;51.548;7.222;2023-04-10T00:48:43;21.40;64.50
2957;DHT22;1488;51.548;7.222;2023-04-10T00:51:10;21.40;64.40
2957;DHT22;1488;51.548;7.222;2023-04-10T00:53:37;21.40;64.30
2957;DHT22;1488;51.548;7.222;2023-04-10T00:56:05;21.40;64.30
2957;DHT22;1488;51.548;7.222;2023-04-10T00:58:32;21.40;64.40
2957;DHT22;1488;51.548;7.222;2023-04-10T01:00:59;21.40;64.40
2957;DHT22;1488;51.548;7.222;2023-04-10T01:03:26;21.40;64.40
2957;DHT22;1488;51.548;7.222;2023-04-10T01:06:03;21.30;64.20
2957;DHT22;1488;51.548;7.222;2023-04-10T01:08:41;21.40;65.20
2957;DHT22;1488;51.548;7.222;2023-04-10T01:11:11;21.30;64.20
2957;DHT22;1488;51.548;7.222;2023-04-10T01:13:45;21.30;64.30
2957;DHT22;1488;51.548;7.222;2023-04-10T01:16:17;21.30;64.10
2957;DHT22;1488;51.548;7.222;2023-04-10T01:18:49;21.30;64.10
2957;DHT22;1488;51.548;7.222;2023-04-10T01:21:20;21.30;64.10
2957;DHT22;1488;51.548;7.222;2023-04-10T01:24:06;21.30;64.00
2957;DHT22;1488;51.548;7.222;2023-04-10T01:29:31;21.30;64.00
2957;DHT22;1488;51.548;7.222;2023-04-10T01:32:01;21.30;64.10
2957;DHT22;1488;51.548;7.222;2023-04-10T01:34:33;21.30;64.00
2957;DHT22;1488;51.548;7.222;2023-04-10T01:37:04;21.30;64.10
2957;DHT22;1488;51.548;7.222;2023-04-10T01:39:35;21.40;64.20
2957;DHT22;1488;51.548;7.222;2023-04-10T01:42:05;21.30;64.10
2957;DHT22;1488;51.548;7.222;2023-04-10T01:44:35;21.30;64.10
2957;DHT22;1488;51.548;7.222;2023-04-10T01:47:04;21.40;64.30
2957;DHT22;1488;51.548;7.222;2023-04-10T01:49:33;21.30;64.00
2957;DHT22;1488;51.548;7.222;2023-04-10T01:52:02;21.30;64.10
2957;DHT22;1488;51.548;7.222;2023-04-10T01:54:32;21.30;64.10
2957;DHT22;1488;51.548;7.222;2023-04-10T01:56:59;21.30;64.00
2957;DHT22;1488;51.548;7.222;2023-04-10T01:59:28;21.30;64.10
2957;DHT22;1488;51.548;7.222;2023-04-10T02:01:57;21.30;63.90
2957;DHT22;1488;51.548;7.222;2023-04-10T02:04:25;21.30;64.00
2957;DHT22;1488;51.548;7.222;2023-04-10T02:07:01;21.30;64.10
2957;DHT22;1488;51.548;7.222;2023-04-10T02:09:35;21.30;63.90
2957;DHT22;1488;51.548;7.222;2023-04-10T02:12:05;21.20;63.90
2957;DHT22;1488;51.548;7.222;2023-04-10T02:14:35;21.20;63.90
2957;DHT22;1488;51.548;7.222;2023-04-10T02:17:08;21.20;63.90
2957;DHT22;1488;51.548;7.222;2023-04-10T02:19:36;21.20;63.80
2957;DHT22;1488;51.548;7.222;2023-04-10T02:22:04;21.20;63.80
2957;DHT22;1488;51.548;7.222;2023-04-10T02:24:32;21.20;63.90
2957;DHT22;1488;51.548;7.222;2023-04-10T02:27:00;21.20;63.90
2957;DHT22;1488;51.548;7.222;2023-04-10T02:29:27;21.20;63.60
2957;DHT22;1488;51.548;7.222;2023-04-10T02:31:53;21.20;64.20
2957;DHT22;1488;51.548;7.222;2023-04-10T02:34:22;21.20;63.80
2957;DHT22;1488;51.548;7.222;2023-04-10T02:36:48;21.20;63.80
2957;DHT22;1488;51.548;7.222;2023-04-10T02:39:15;21.20;63.90
2957;DHT22;1488;51.548;7.222;2023-04-10T02:41:42;21.20;63.80
2957;DHT22;1488;51.548;7.222;2023-04-10T02:44:09;21.20;63.90
2957;DHT22;1488;51.548;7.222;2023-04-10T02:46:36;21.20;63.90
2957;DHT22;1488;51.548;7.222;2023-04-10T02:49:02;21.20;63.80
2957;DHT22;1488;51.548;7.222;2023-04-10T02:51:33;21.20;63.80
2957;DHT22;1488;51.548;7.222;2023-04-10T02:54:00;21.20;63.80
2957;DHT22;1488;51.548;7.222;2023-04-10T02:56:27;21.20;63.80
2957;DHT22;1488;51.548;7.222;2023-04-10T02:58:54;21.20;63.80
2957;DHT22;1488;51.548;7.222;2023-04-10T03:01:21;21.20;63.80
2957;DHT22;1488;51.548;7.222;2023-04-10T03:03:48;21.20;63.70
2957;DHT22;1488;51.548;7.222;2023-04-10T03:06:15;21.20;63.80
2957;DHT22;1488;51.548;7.222;2023-04-10T03:08:43;21.20;63.70
2957;DHT22;1488;51.548;7.222;2023-04-10T03:11:09;21.20;63.80
2957;DHT22;1488;51.548;7.222;2023-04-10T03:13:36;21.20;63.80
2957;DHT22;1488;51.548;7.222;2023-04-10T03:16:03;21.20;63.70
2957;DHT22;1488;51.548;7.222;2023-04-10T03:18:30;21.10;63.70
2957;DHT22;1488;51.548;7.222;2023-04-10T03:20:58;21.10;63.70
2957;DHT22;1488;51.548;7.222;2023-04-10T03:23:27;21.20;63.80
2957;DHT22;1488;51.548;7.222;2023-04-10T03:25:55;21.10;63.70
2957;DHT22;1488;51.548;7.222;2023-04-10T03:28:22;21.10;63.50
2957;DHT22;1488;51.548;7.222;2023-04-10T03:30:49;21.10;63.60
2957;DHT22;1488;51.548;7.222;2023-04-10T03:33:16;21.10;63.60
2957;DHT22;1488;51.548;7.222;2023-04-10T03:35:44;21.10;63.60
2957;DHT22;1488;51.548;7.222;2023-04-10T03:38:11;21.10;63.50
2957;DHT22;1488;51.548;7.222;2023-04-10T03:40:38;21.10;63.60
2957;DHT22;1488;51.548;7.222;2023-04-10T03:43:06;21.20;63.80
2957;DHT22;1488;51.548;7.222;2023-04-10T03:45:33;21.10;63.70
2957;DHT22;1488;51.548;7.222;2023-04-10T03:48:00;21.10;63.60
2957;DHT22;1488;51.548;7.222;2023-04-10T03:50:27;21.10;63.60
2957;DHT22;1488;51.548;7.222;2023-04-10T03:52:54;21.10;63.50
2957;DHT22;1488;51.548;7.222;2023-04-10T03:55:20;21.10;63.50
2957;DHT22;1488;51.548;7.222;2023-04-10T03:57:47;21.10;63.60
2957;DHT22;1488;51.548;7.222;2023-04-10T04:00:16;21.10;63.50
2957;DHT22;1488;51.548;7.222;2023-04-10T04:02:43;21.10;63.60
2957;DHT22;1488;51.548;7.222;2023-04-10T04:05:10;21.10;63.50
2957;DHT22;1488;51.548;7.222;2023-04-10T04:07:37;21.10;63.50
2957;DHT22;1488;51.548;7.222;2023-04-10T04:10:04;21.10;63.40
2957;DHT22;1488;51.548;7.222;2023-04-10T04:12:31;21.10;63.40
2957;DHT22;1488;51.548;7.222;2023-04-10T04:14:58;21.10;63.60
2957;DHT22;1488;51.548;7.222;2023-04-10T04:17:26;21.10;63.50
2957;DHT22;1488;51.548;7.222;2023-04-10T04:19:53;21.10;63.50
2957;DHT22;1488;51.548;7.222;2023-04-10T04:22:20;21.10;63.50
2957;DHT22;1488;51.548;7.222;2023-04-10T04:24:46;21.10;63.60
2957;DHT22;1488;51.548;7.222;2023-04-10T04:27:13;21.10;63.60
2957;DHT22;1488;51.548;7.222;2023-04-10T04:29:40;21.00;63.50
2957;DHT22;1488;51.548;7.222;2023-04-10T04:32:07;21.00;63.50
2957;DHT22;1488;51.548;7.222;2023-04-10T04:34:35;21.00;63.60
2957;DHT22;1488;51.548;7.222;2023-04-10T04:37:02;20.90;63.50
2957;DHT22;1488;51.548;7.222;2023-04-10T04:39:30;21.00;63.50
2957;DHT22;1488;51.548;7.222;2023-04-10T04:41:56;21.00;64.30
2957;DHT22;1488;51.548;7.222;2023-04-10T04:44:23;21.00;63.60
2957;DHT22;1488;51.548;7.222;2023-04-10T04:46:50;21.00;63.60
2957;DHT22;1488;51.548;7.222;2023-04-10T04:49:17;21.00;64.30
2957;DHT22;1488;51.548;7.222;2023-04-10T04:51:45;21.00;63.50
2957;DHT22;1488;51.548;7.222;2023-04-10T04:54:12;21.00;63.40
2957;DHT22;1488;51.548;7.222;2023-04-10T04:56:38;21.00;63.40
2957;DHT22;1488;51.548;7.222;2023-04-10T04:59:05;21.00;63.60
2957;DHT22;1488;51.548;7.222;2023-04-10T05:01:32;21.00;63.50
2957;DHT22;1488;51.548;7.222;2023-04-10T05:03:59;21.00;63.40
2957;DHT22;1488;51.548;7.222;2023-04-10T05:06:26;21.00;63.60
2957;DHT22;1488;51.548;7.222;2023-04-10T05:08:54;21.00;63.50
2957;DHT22;1488;51.548;7.222;2023-04-10T05:11:20;21.00;63.50
2957;DHT22;1488;51.548;7.222;2023-04-10T05:13:47;21.00;63.70
2957;DHT22;1488;51.548;7.222;2023-04-10T05:16:14;21.00;63.50
2957;DHT22;1488;51.548;7.222;2023-04-10T05:18:41;21.00;63.40
2957;DHT22;1488;51.548;7.222;2023-04-10T05:21:08;21.00;63.40
2957;DHT22;1488;51.548;7.222;2023-04-10T05:23:35;21.00;63.40
2957;DHT22;1488;51.548;7.222;2023-04-10T05:26:03;21.00;63.50
2957;DHT22;1488;51.548;7.222;2023-04-10T05:28:30;21.00;63.40
2957;DHT22;1488;51.548;7.222;2023-04-10T05:30:57;21.00;63.60
2957;DHT22;1488;51.548;7.222;2023-04-10T05:33:24;21.00;63.50
2957;DHT22;1488;51.548;7.222;2023-04-10T05:35:51;21.00;63.40
2957;DHT22;1488;51.548;7.222;2023-04-10T05:38:18;21.00;63.50
2957;DHT22;1488;51.548;7.222;2023-04-10T05:40:46;21.00;63.50
2957;DHT22;1488;51.548;7.222;2023-04-10T05:43:14;21.00;63.70
2957;DHT22;1488;51.548;7.222;2023-04-10T05:45:43;20.90;63.40
2957;DHT22;1488;51.548;7.222;2023-04-10T05:48:09;20.90;63.50
2957;DHT22;1488;51.548;7.222;2023-04-10T05:50:36;20.90;63.40
2957;DHT22;1488;51.548;7.222;2023-04-10T05:53:03;20.90;63.50
2957;DHT22;1488;51.548;7.222;2023-04-10T05:55:30;20.90;63.40
2957;DHT22;1488;51.548;7.222;2023-04-10T05:57:57;21.00;63.60
2957;DHT22;1488;51.548;7.222;2023-04-10T06:00:28;20.90;63.60
2957;DHT22;1488;51.548;7.222;2023-04-10T06:02:55;21.00;63.70
2957;DHT22;1488;51.548;7.222;2023-04-10T06:05:22;20.90;63.00
2957;DHT22;1488;51.548;7.222;2023-04-10T06:10:17;20.90;62.70
2957;DHT22;1488;51.548;7.222;2023-04-10T06:12:43;20.90;60.40
2957;DHT22;1488;51.548;7.222;2023-04-10T06:15:11;21.00;61.30
2957;DHT22;1488;51.548;7.222;2023-04-10T06:17:42;21.00;62.40
2957;DHT22;1488;51.548;7.222;2023-04-10T06:20:09;21.00;62.60
2957;DHT22;1488;51.548;7.222;2023-04-10T06:22:36;20.90;62.70
2957;DHT22;1488;51.548;7.222;2023-04-10T06:25:03;21.10;63.10
2957;DHT22;1488;51.548;7.222;2023-04-10T06:27:32;20.90;61.70
2957;DHT22;1488;51.548;7.222;2023-04-10T06:29:59;21.00;61.90
2957;DHT22;1488;51.548;7.222;2023-04-10T06:32:26;20.90;61.70
2957;DHT22;1488;51.548;7.222;2023-04-10T06:34:54;20.90;61.90
2957;DHT22;1488;51.548;7.222;2023-04-10T06:37:26;21.00;62.30
2957;DHT22;1488;51.548;7.222;2023-04-10T06:40:01;21.00;62.80
2957;DHT22;1488;51.548;7.222;2023-04-10T06:42:28;21.00;62.90
2957;DHT22;1488;51.548;7.222;2023-04-10T06:44:54;21.00;63.00
2957;DHT22;1488;51.548;7.222;2023-04-10T06:47:21;21.10;63.30
2957;DHT22;1488;51.548;7.222;2023-04-10T06:49:48;21.10;63.30
2957;DHT22;1488;51.548;7.222;2023-04-10T06:52:16;21.10;62.50
2957;DHT22;1488;51.548;7.222;2023-04-10T06:54:43;21.10;63.00
2957;DHT22;1488;51.548;7.222;2023-04-10T06:57:10;21.20;64.10
2957;DHT22;1488;51.548;7.222;2023-04-10T06:59:37;21.10;63.40
2957;DHT22;1488;51.548;7.222;2023-04-10T07:02:03;21.10;63.10
2957;DHT22;1488;51.548;7.222;2023-04-10T07:04:31;21.10;63.20
2957;DHT22;1488;51.548;7.222;2023-04-10T07:06:57;21.10;63.30
2957;DHT22;1488;51.548;7.222;2023-04-10T07:09:26;21.10;61.80
2957;DHT22;1488;51.548;7.222;2023-04-10T07:11:52;21.20;62.40
2957;DHT22;1488;51.548;7.222;2023-04-10T07:14:19;21.20;62.70
2957;DHT22;1488;51.548;7.222;2023-04-10T07:16:46;21.20;63.10
2957;DHT22;1488;51.548;7.222;2023-04-10T07:19:13;21.40;63.70
2957;DHT22;1488;51.548;7.222;2023-04-10T07:21:40;21.20;63.60
2957;DHT22;1488;51.548;7.222;2023-04-10T07:24:07;21.20;63.60
2957;DHT22;1488;51.548;7.222;2023-04-10T07:26:35;21.20;63.80
2957;DHT22;1488;51.548;7.222;2023-04-10T07:29:02;21.20;63.80
2957;DHT22;1488;51.548;7.222;2023-04-10T07:31:29;21.20;63.80
2957;DHT22;1488;51.548;7.222;2023-04-10T07:33:55;21.20;61.30
2957;DHT22;1488;51.548;7.222;2023-04-10T07:36:22;21.20;61.90
2957;DHT22;1488;51.548;7.222;2023-04-10T07:38:49;21.20;62.70
2957;DHT22;1488;51.548;7.222;2023-04-10T07:41:16;21.30;62.90
2957;DHT22;1488;51.548;7.222;2023-04-10T07:43:44;21.20;62.20
2957;DHT22;1488;51.548;7.222;2023-04-10T07:46:11;21.20;59.60
2957;DHT22;1488;51.548;7.222;2023-04-10T07:48:37;21.20;59.40
2957;DHT22;1488;51.548;7.222;2023-04-10T07:51:05;21.20;59.80
2957;DHT22;1488;51.548;7.222;2023-04-10T07:53:33;21.20;60.60
2957;DHT22;1488;51.548;7.222;2023-04-10T07:56:00;21.20;61.80
2957;DHT22;1488;51.548;7.222;2023-04-10T07:58:27;21.30;62.00
2957;DHT22;1488;51.548;7.222;2023-04-10T08:00:55;21.30;62.10
2957;DHT22;1488;51.548;7.222;2023-04-10T08:03:22;21.30;62.20
2957;DHT22;1488;51.548;7.222;2023-04-10T08:05:49;21.30;62.30
2957;DHT22;1488;51.548;7.222;2023-04-10T08:08:16;21.30;62.40
2957;DHT22;1488;51.548;7.222;2023-04-10T08:10:43;21.30;62.50
2957;DHT22;1488;51.548;7.222;2023-04-10T08:13:09;21.30;62.50
2957;DHT22;1488;51.548;7.222;2023-04-10T08:15:37;21.30;62.60
2957;DHT22;1488;51.548;7.222;2023-04-10T08:18:05;21.40;62.80
2957;DHT22;1488;51.548;7.222;2023-04-10T08:20:31;21.40;62.90
2957;DHT22;1488;51.548;7.222;2023-04-10T08:23:01;21.40;62.80
2957;DHT22;1488;51.548;7.222;2023-04-10T08:25:29;21.40;62.90
2957;DHT22;1488;51.548;7.222;2023-04-10T08:27:55;21.40;62.90
2957;DHT22;1488;51.548;7.222;2023-04-10T08:30:24;21.60;63.30
2957;DHT22;1488;51.548;7.222;2023-04-10T08:32:51;21.50;63.20
2957;DHT22;1488;51.548;7.222;2023-04-10T08:35:20;21.60;63.30
2957;DHT22;1488;51.548;7.222;2023-04-10T08:37:46;21.50;63.20
2957;DHT22;1488;51.548;7.222;2023-04-10T08:40:13;21.60;63.40
2957;DHT22;1488;51.548;7.222;2023-04-10T08:42:40;21.60;63.40
2957;DHT22;1488;51.548;7.222;2023-04-10T08:45:08;21.60;63.40
2957;DHT22;1488;51.548;7.222;2023-04-10T08:47:35;21.60;63.50
2957;DHT22;1488;51.548;7.222;2023-04-10T08:50:06;21.70;63.60
2957;DHT22;1488;51.548;7.222;2023-04-10T08:52:37;21.70;63.50
2957;DHT22;1488;51.548;7.222;2023-04-10T08:55:07;21.70;63.50
2957;DHT22;1488;51.548;7.222;2023-04-10T08:57:36;21.80;63.70
2957;DHT22;1488;51.548;7.222;2023-04-10T09:00:04;21.80;63.70
2957;DHT22;1488;51.548;7.222;2023-04-10T09:02:31;21.80;63.60
2957;DHT22;1488;51.548;7.222;2023-04-10T09:04:59;21.90;63.70
2957;DHT22;1488;51.548;7.222;2023-04-10T09:07:28;21.90;63.60
2957;DHT22;1488;51.548;7.222;2023-04-10T09:09:56;21.90;63.60
2957;DHT22;1488;51.548;7.222;2023-04-10T09:12:23;22.00;63.70
2957;DHT22;1488;51.548;7.222;2023-04-10T09:14:50;22.00;63.70
2957;DHT22;1488;51.548;7.222;2023-04-10T09:17:18;22.00;63.70
2957;DHT22;1488;51.548;7.222;2023-04-10T09:19:46;22.00;63.70
2957;DHT22;1488;51.548;7.222;2023-04-10T09:22:14;22.10;63.70
2957;DHT22;1488;51.548;7.222;2023-04-10T09:24:43;22.10;63.70
2957;DHT22;1488;51.548;7.222;2023-04-10T09:27:27;22.20;63.70
2957;DHT22;1488;51.548;7.222;2023-04-10T09:29:53;22.20;63.80
2957;DHT22;1488;51.548;7.222;2023-04-10T09:32:36;22.20;63.80
2957;DHT22;1488;51.548;7.222;2023-04-10T09:35:03;22.20;64.70
2957;DHT22;1488;51.548;7.222;2023-04-10T09:37:31;22.20;63.70
2957;DHT22;1488;51.548;7.222;2023-04-10T09:39:58;22.20;63.80
2957;DHT22;1488;51.548;7.222;2023-04-10T09:42:30;22.30;63.80
2957;DHT22;1488;51.548;7.222;2023-04-10T09:44:57;22.30;63.80
2957;DHT22;1488;51.548;7.222;2023-04-10T09:47:24;22.30;63.80
2957;DHT22;1488;51.548;7.222;2023-04-10T09:49:52;22.30;63.80
2957;DHT22;1488;51.548;7.222;2023-04-10T09:52:20;22.20;63.60
2957;DHT22;1488;51.548;7.222;2023-04-10T09:54:47;22.20;63.60
2957;DHT22;1488;51.548;7.222;2023-04-10T09:57:16;22.30;63.70
2957;DHT22;1488;51.548;7.222;2023-04-10T09:59:48;22.30;63.80
2957;DHT22;1488;51.548;7.222;2023-04-10T10:02:16;22.30;63.80
2957;DHT22;1488;51.548;7.222;2023-04-10T10:04:45;22.30;63.80
2957;DHT22;1488;51.548;7.222;2023-04-10T10:07:13;22.40;63.90
2957;DHT22;1488;51.548;7.222;2023-04-10T10:09:41;22.30;64.60
2957;DHT22;1488;51.548;7.222;2023-04-10T10:12:10;22.30;63.80
2957;DHT22;1488;51.548;7.222;2023-04-10T10:14:43;22.40;63.80
2957;DHT22;1488;51.548;7.222;2023-04-10T10:17:14;22.50;64.00
2957;DHT22;1488;51.548;7.222;2023-04-10T10:19:49;22.40;63.80
2957;DHT22;1488;51.548;7.222;2023-04-10T10:22:17;22.40;63.90
2957;DHT22;1488;51.548;7.222;2023-04-10T10:24:45;22.50;64.00
2957;DHT22;1488;51.548;7.222;2023-04-10T10:27:14;22.50;63.90
2957;DHT22;1488;51.548;7.222;2023-04-10T10:29:43;22.40;63.80
2957;DHT22;1488;51.548;7.222;2023-04-10T10:32:13;22.50;63.90
2957;DHT22;1488;51.548;7.222;2023-04-10T10:34:41;22.50;63.90
2957;DHT22;1488;51.548;7.222;2023-04-10T10:37:08;22.40;63.90
2957;DHT22;1488;51.548;7.222;2023-04-10T10:39:44;22.50;63.90
2957;DHT22;1488;51.548;7.222;2023-04-10T10:42:29;22.40;63.80
2957;DHT22;1488;51.548;7.222;2023-04-10T10:45:07;22.50;63.90
2957;DHT22;1488;51.548;7.222;2023-04-10T10:47:39;22.40;63.90
2957;DHT22;1488;51.548;7.222;2023-04-10T10:50:07;22.50;64.00
2957;DHT22;1488;51.548;7.222;2023-04-10T10:52:40;22.50;64.00
2957;DHT22;1488;51.548;7.222;2023-04-10T10:55:31;22.50;64.00
2957;DHT22;1488;51.548;7.222;2023-04-10T10:58:03;22.60;64.00
2957;DHT22;1488;51.548;7.222;2023-04-10T11:01:05;22.60;63.90
2957;DHT22;1488;51.548;7.222;2023-04-10T11:03:34;22.60;64.00
2957;DHT22;1488;51.548;7.222;2023-04-10T11:06:03;22.50;64.70
2957;DHT22;1488;51.548;7.222;2023-04-10T11:08:36;22.60;64.00
2957;DHT22;1488;51.548;7.222;2023-04-10T11:11:07;22.60;64.10
2957;DHT22;1488;51.548;7.222;2023-04-10T11:13:36;22.60;64.10
2957;DHT22;1488;51.548;7.222;2023-04-10T11:16:04;22.60;64.20
2957;DHT22;1488;51.548;7.222;2023-04-10T11:19:12;22.60;64.20
2957;DHT22;1488;51.548;7.222;2023-04-10T11:22:03;22.60;64.10
2957;DHT22;1488;51.548;7.222;2023-04-10T11:24:54;22.70;64.20
2957;DHT22;1488;51.548;7.222;2023-04-10T11:27:40;22.60;64.20
2957;DHT22;1488;51.548;7.222;2023-04-10T11:30:34;22.70;64.20
2957;DHT22;1488;51.548;7.222;2023-04-10T11:33:02;22.70;64.30
2957;DHT22;1488;51.548;7.222;2023-04-10T11:35:31;22.60;64.30
2957;DHT22;1488;51.548;7.222;2023-04-10T11:38:16;22.70;64.40
2957;DHT22;1488;51.548;7.222;2023-04-10T11:41:01;22.70;64.40
2957;DHT22;1488;51.548;7.222;2023-04-10T11:43:30;22.70;64.30
2957;DHT22;1488;51.548;7.222;2023-04-10T11:46:02;22.70;64.40
2957;DHT22;1488;51.548;7.222;2023-04-10T11:48:30;22.70;64.40
2957;DHT22;1488;51.548;7.222;2023-04-10T11:50:58;22.70;64.30
2957;DHT22;1488;51.548;7.222;2023-04-10T11:53:26;22.70;64.30
2957;DHT22;1488;51.548;7.222;2023-04-10T11:55:54;22.70;64.20
2957;DHT22;1488;51.548;7.222;2023-04-10T11:58:23;22.70;64.20
2957;DHT22;1488;51.548;7.222;2023-04-10T12:00:58;22.70;64.30
2957;DHT22;1488;51.548;7.222;2023-04-10T12:03:31;22.70;64.30
2957;DHT22;1488;51.548;7.222;2023-04-10T12:05:59;22.70;64.40
2957;DHT22;1488;51.548;7.222;2023-04-10T12:08:30;22.70;64.40
2957;DHT22;1488;51.548;7.222;2023-04-10T12:10:57;22.70;64.50
2957;DHT22;1488;51.548;7.222;2023-04-10T12:13:24;22.70;64.40
2957;DHT22;1488;51.548;7.222;2023-04-10T12:15:52;22.70;64.40
2957;DHT22;1488;51.548;7.222;2023-04-10T12:18:19;22.70;64.40
2957;DHT22;1488;51.548;7.222;2023-04-10T12:20:46;22.70;64.40
2957;DHT22;1488;51.548;7.222;2023-04-10T12:23:17;22.70;64.50
2957;DHT22;1488;51.548;7.222;2023-04-10T12:25:44;22.70;64.40
2957;DHT22;1488;51.548;7.222;2023-04-10T12:28:16;22.70;64.40
2957;DHT22;1488;51.548;7.222;2023-04-10T12:30:48;22.70;64.50
2957;DHT22;1488;51.548;7.222;2023-04-10T12:33:21;22.70;65.30
2957;DHT22;1488;51.548;7.222;2023-04-10T12:35:47;22.80;64.60
2957;DHT22;1488;51.548;7.222;2023-04-10T12:38:14;22.70;64.40
2957;DHT22;1488;51.548;7.222;2023-04-10T12:40:58;22.70;64.40
2957;DHT22;1488;51.548;7.222;2023-04-10T12:43:32;22.80;64.50
2957;DHT22;1488;51.548;7.222;2023-04-10T12:46:00;22.90;64.60
2957;DHT22;1488;51.548;7.222;2023-04-10T12:48:27;22.70;64.50
2957;DHT22;1488;51.548;7.222;2023-04-10T12:50:53;22.70;64.40
2957;DHT22;1488;51.548;7.222;2023-04-10T12:53:21;22.70;64.40
2957;DHT22;1488;51.548;7.222;2023-04-10T12:56:04;22.70;64.40
2957;DHT22;1488;51.548;7.222;2023-04-10T12:58:32;22.80;64.70
2957;DHT22;1488;51.548;7.222;2023-04-10T13:01:04;22.70;64.60
2957;DHT22;1488;51.548;7.222;2023-04-10T13:03:33;22.70;64.60
2957;DHT22;1488;51.548;7.222;2023-04-10T13:06:00;22.80;64.80
2957;DHT22;1488;51.548;7.222;2023-04-10T13:08:27;22.80;64.80
2957;DHT22;1488;51.548;7.222;2023-04-10T13:10:56;22.80;64.80
2957;DHT22;1488;51.548;7.222;2023-04-10T13:13:29;22.80;64.80
2957;DHT22;1488;51.548;7.222;2023-04-10T13:15:57;22.90;64.90
2957;DHT22;1488;51.548;7.222;2023-04-10T13:18:24;22.90;64.90
2957;DHT22;1488;51.548;7.222;2023-04-10T13:20:52;22.80;64.70
2957;DHT22;1488;51.548;7.222;2023-04-10T13:23:18;22.80;64.70
2957;DHT22;1488;51.548;7.222;2023-04-10T13:25:45;22.80;64.70
2957;DHT22;1488;51.548;7.222;2023-04-10T13:28:12;22.80;64.60
2957;DHT22;1488;51.548;7.222;2023-04-10T13:30:41;22.80;64.60
2957;DHT22;1488;51.548;7.222;2023-04-10T13:33:08;22.80;64.70
2957;DHT22;1488;51.548;7.222;2023-04-10T13:35:35;22.80;64.60
2957;DHT22;1488;51.548;7.222;2023-04-10T13:38:02;22.70;64.40
2957;DHT22;1488;51.548;7.222;2023-04-10T13:40:29;22.70;64.40
2957;DHT22;1488;51.548;7.222;2023-04-10T13:42:56;22.70;64.40
2957;DHT22;1488;51.548;7.222;2023-04-10T13:45:23;22.70;64.40
2957;DHT22;1488;51.548;7.222;2023-04-10T13:47:51;22.70;64.40
2957;DHT22;1488;51.548;7.222;2023-04-10T13:50:19;22.70;64.40
2957;DHT22;1488;51.548;7.222;2023-04-10T13:52:46;22.70;64.40
2957;DHT22;1488;51.548;7.222;2023-04-10T13:55:12;22.70;64.40
2957;DHT22;1488;51.548;7.222;2023-04-10T13:57:39;22.70;64.40
2957;DHT22;1488;51.548;7.222;2023-04-10T14:00:07;22.70;64.40
2957;DHT22;1488;51.548;7.222;2023-04-10T14:02:34;22.60;64.30
2957;DHT22;1488;51.548;7.222;2023-04-10T14:05:03;22.70;64.30
2957;DHT22;1488;51.548;7.222;2023-04-10T14:07:30;22.60;64.20
2957;DHT22;1488;51.548;7.222;2023-04-10T14:09:57;22.60;64.20
2957;DHT22;1488;51.548;7.222;2023-04-10T14:12:24;22.60;64.20
2957;DHT22;1488;51.548;7.222;2023-04-10T14:14:52;22.60;64.20
2957;DHT22;1488;51.548;7.222;2023-04-10T14:17:18;22.60;64.20
2957;DHT22;1488;51.548;7.222;2023-04-10T14:19:45;22.60;64.20
2957;DHT22;1488;51.548;7.222;2023-04-10T14:22:17;22.60;64.20
2957;DHT22;1488;51.548;7.222;2023-04-10T14:24:43;22.60;64.20
2957;DHT22;1488;51.548;7.222;2023-04-10T14:27:10;22.60;64.20
2957;DHT22;1488;51.548;7.222;2023-04-10T14:29:37;22.60;64.20
2957;DHT22;1488;51.548;7.222;2023-04-10T14:32:04;22.70;64.30
2957;DHT22;1488;51.548;7.222;2023-04-10T14:34:31;22.50;64.10
2957;DHT22;1488;51.548;7.222;2023-04-10T14:36:58;22.50;64.10
2957;DHT22;1488;51.548;7.222;2023-04-10T14:39:26;22.50;65.00
2957;DHT22;1488;51.548;7.222;2023-04-10T14:41:53;22.60;64.20
2957;DHT22;1488;51.548;7.222;2023-04-10T14:44:20;22.60;64.10
2957;DHT22;1488;51.548;7.222;2023-04-10T14:46:46;22.60;64.10
2957;DHT22;1488;51.548;7.222;2023-04-10T14:49:13;22.50;64.00
2957;DHT22;1488;51.548;7.222;2023-04-10T14:51:44;22.60;64.20
2957;DHT22;1488;51.548;7.222;2023-04-10T14:54:13;22.50;64.20
2957;DHT22;1488;51.548;7.222;2023-04-10T14:56:42;22.50;64.20
2957;DHT22;1488;51.548;7.222;2023-04-10T14:59:09;22.50;64.20
2957;DHT22;1488;51.548;7.222;2023-04-10T15:01:36;22.50;63.30
2957;DHT22;1488;51.548;7.222;2023-04-10T15:04:03;22.40;59.50
2957;DHT22;1488;51.548;7.222;2023-04-10T15:06:31;22.40;58.90
2957;DHT22;1488;51.548;7.222;2023-04-10T15:08:58;22.30;58.50
2957;DHT22;1488;51.548;7.222;2023-04-10T15:11:25;22.20;58.90
2957;DHT22;1488;51.548;7.222;2023-04-10T15:13:53;22.20;59.10
2957;DHT22;1488;51.548;7.222;2023-04-10T15:16:21;22.10;59.20
2957;DHT22;1488;51.548;7.222;2023-04-10T15:18:48;22.10;59.50
2957;DHT22;1488;51.548;7.222;2023-04-10T15:21:15;22.10;59.50
2957;DHT22;1488;51.548;7.222;2023-04-10T15:23:42;22.10;59.30
2957;DHT22;1488;51.548;7.222;2023-04-10T15:26:13;22.10;62.10
2957;DHT22;1488;51.548;7.222;2023-04-10T15:28:40;22.10;62.70
2957;DHT22;1488;51.548;7.222;2023-04-10T15:31:10;22.10;62.90
2957;DHT22;1488;51.548;7.222;2023-04-10T15:33:36;22.10;63.00
2957;DHT22;1488;51.548;7.222;2023-04-10T15:36:05;22.10;63.00
2957;DHT22;1488;51.548;7.222;2023-04-10T15:38:33;22.20;63.30
2957;DHT22;1488;51.548;7.222;2023-04-10T15:41:00;22.20;63.40
2957;DHT22;1488;51.548;7.222;2023-04-10T15:43:27;22.20;63.40
2957;DHT22;1488;51.548;7.222;2023-04-10T15:45:57;22.20;63.50
2957;DHT22;1488;51.548;7.222;2023-04-10T15:48:26;22.20;63.60
2957;DHT22;1488;51.548;7.222;2023-04-10T15:50:53;22.20;63.60
2957;DHT22;1488;51.548;7.222;2023-04-10T15:53:20;22.20;63.50
2957;DHT22;1488;51.548;7.222;2023-04-10T15:55:47;22.20;63.70
2957;DHT22;1488;51.548;7.222;2023-04-10T15:58:13;22.40;63.90
2957;DHT22;1488;51.548;7.222;2023-04-10T16:00:40;22.20;63.70
2957;DHT22;1488;51.548;7.222;2023-04-10T16:03:07;22.20;63.80
2957;DHT22;1488;51.548;7.222;2023-04-10T16:05:35;22.20;63.80
2957;DHT22;1488;51.548;7.222;2023-04-10T16:08:02;22.20;63.80
2957;DHT22;1488;51.548;7.222;2023-04-10T16:10:29;22.20;63.90
2957;DHT22;1488;51.548;7.222;2023-04-10T16:12:56;22.20;62.40
2957;DHT22;1488;51.548;7.222;2023-04-10T16:15:28;22.20;63.40
2957;DHT22;1488;51.548;7.222;2023-04-10T16:17:55;22.20;63.60